Time;durP1;ratioP1;P1;durP2;ratioP2;P2;SDS_P1;SDS_P2;PMS_P1;PMS_P2;Temp;Humidity;BMP_temperature;BMP_pressure;BME280_temperature;BME280_humidity;BME280_pressure;Samples;Min_cycle;Max_cycle;Signal;HPM_P1;HPM_P2
2023/11/12 00:01:16;;;;;;;30.73;12.43;;;;;;;5.35;100.00;100582.44;5252052;28;20073;-71
2023/11/12 00:03:46;;;;;;;32.22;14.07;;;;;;;5.42;100.00;100588.88;5249183;28;20056;-71
2023/11/12 00:06:17;;;;;;;33.55;13.63;;;;;;;5.55;100.00;100588.63;5251511;28;20024;-71
2023/11/12 00:08:47;;;;;;;31.98;14.65;;;;;;;5.62;100.00;100584.41;5250180;28;20024;-70
2023/11/12 00:11:19;;;;;;;35.67;15.32;;;;;;;5.61;100.00;100580.91;5254067;28;20054;-71
2023/11/12 00:13:49;;;;;;;40.30;16.40;;;;;;;5.64;100.00;100570.00;5256786;28;20032;-70
2023/11/12 00:16:22;;;;;;;40.47;16.52;;;;;;;5.66;100.00;100569.84;5255067;28;20020;-71
2023/11/12 00:18:52;;;;;;;36.50;14.82;;;;;;;5.70;100.00;100574.75;5258119;28;20052;-71
2023/11/12 00:21:24;;;;;;;29.80;15.15;;;;;;;5.65;100.00;100570.81;5247432;28;20020;-71
2023/11/12 00:23:54;;;;;;;35.08;14.75;;;;;;;5.59;100.00;100558.94;5256946;28;20400;-71
2023/11/12 00:26:25;;;;;;;29.45;13.57;;;;;;;5.45;100.00;100564.66;5257011;28;20016;-71
2023/11/12 00:28:55;;;;;;;50.58;15.50;;;;;;;5.35;100.00;100559.34;5256236;28;20053;-71
2023/11/12 00:31:26;;;;;;;31.70;14.38;;;;;;;5.27;100.00;100553.03;5253635;28;20069;-71
2023/11/12 00:33:58;;;;;;;27.27;13.85;;;;;;;5.19;100.00;100559.91;5252683;28;20024;-71
2023/11/12 00:36:30;;;;;;;29.30;14.52;;;;;;;5.26;100.00;100559.34;5261930;28;20106;-70
2023/11/12 00:39:00;;;;;;;38.28;17.50;;;;;;;5.23;100.00;100564.94;5262297;28;20028;-71
2023/11/12 00:41:31;;;;;;;36.28;15.77;;;;;;;5.20;100.00;100561.56;5261552;28;20021;-70
2023/11/12 00:44:02;;;;;;;39.28;17.13;;;;;;;5.22;100.00;100553.47;5258138;28;20218;-71
2023/11/12 00:46:32;;;;;;;51.05;20.88;;;;;;;5.30;100.00;100558.91;5262700;28;20043;-71
2023/11/12 00:49:04;;;;;;;48.08;21.85;;;;;;;5.36;100.00;100557.53;5261549;28;20024;-71
2023/11/12 00:51:35;;;;;;;45.60;19.73;;;;;;;5.39;100.00;100558.09;5261605;28;20015;-71
2023/11/12 00:54:06;;;;;;;45.97;20.80;;;;;;;5.38;100.00;100556.41;5256795;28;20026;-71
2023/11/12 00:56:36;;;;;;;41.15;18.35;;;;;;;5.32;100.00;100554.31;5258656;28;20016;-70
2023/11/12 00:59:08;;;;;;;37.20;18.23;;;;;;;5.28;100.00;100560.88;5262173;28;20032;-70
2023/11/12 01:01:38;;;;;;;38.88;20.42;;;;;;;5.36;100.00;100562.84;5261032;28;20024;-71
2023/11/12 01:04:11;;;;;;;37.65;19.63;;;;;;;5.33;100.00;100555.16;5265314;28;20020;-70
2023/11/12 01:06:41;;;;;;;41.45;19.52;;;;;;;5.33;100.00;100561.31;5264596;28;20019;-71
2023/11/12 01:09:12;;;;;;;42.00;20.85;;;;;;;5.38;100.00;100556.41;5266328;28;20057;-70
2023/11/12 01:11:42;;;;;;;43.55;18.90;;;;;;;5.37;100.00;100546.75;5270324;28;20030;-71
2023/11/12 01:14:13;;;;;;;40.05;18.35;;;;;;;5.31;100.00;100546.47;5263131;28;20024;-70
2023/11/12 01:16:44;;;;;;;41.83;20.55;;;;;;;5.25;100.00;100545.19;5266459;28;20032;-70
2023/11/12 01:19:16;;;;;;;41.40;20.30;;;;;;;5.17;100.00;100542.38;5269334;28;20117;-70
2023/11/12 01:21:46;;;;;;;41.25;18.88;;;;;;;5.12;100.00;100540.16;5269798;28;20020;-70
2023/11/12 01:24:17;;;;;;;42.92;18.40;;;;;;;5.07;100.00;100542.41;5264415;28;20027;-71
2023/11/12 01:26:47;;;;;;;37.78;18.55;;;;;;;4.99;100.00;100550.22;5268926;28;20060;-70
2023/11/12 01:29:17;;;;;;;41.40;20.73;;;;;;;5.00;100.00;100540.41;5264300;28;20023;-70
2023/11/12 01:31:49;;;;;;;43.90;21.17;;;;;;;5.03;100.00;100548.13;5262617;28;20099;-71
2023/11/12 01:34:21;;;;;;;49.58;24.48;;;;;;;5.10;100.00;100555.41;5262482;28;20483;-70
2023/11/12 01:36:52;;;;;;;52.78;24.77;;;;;;;5.20;100.00;100542.97;5261434;28;20027;-70
2023/11/12 01:39:23;;;;;;;60.33;25.88;;;;;;;5.26;100.00;100544.22;5262827;28;20020;-71
2023/11/12 01:41:55;;;;;;;53.25;23.75;;;;;;;5.30;100.00;100540.31;5266291;28;20056;-70
2023/11/12 01:44:26;;;;;;;62.05;26.35;;;;;;;5.30;100.00;100537.63;5261633;28;20042;-71
2023/11/12 01:46:56;;;;;;;53.80;23.58;;;;;;;5.31;100.00;100541.13;5261201;28;20100;-71
2023/11/12 01:49:27;;;;;;;52.00;24.23;;;;;;;5.28;100.00;100533.47;5265965;28;20107;-71
2023/11/12 01:51:58;;;;;;;81.65;21.90;;;;;;;5.19;100.00;100532.47;5262675;28;20143;-70
2023/11/12 01:54:31;;;;;;;54.22;20.58;;;;;;;5.11;100.00;100529.66;5265833;28;20056;-71
2023/11/12 01:57:02;;;;;;;50.00;18.98;;;;;;;5.04;100.00;100531.19;5265040;28;20019;-71
2023/11/12 01:59:35;;;;;;;39.90;20.50;;;;;;;5.00;100.00;100529.78;5257977;28;20031;-71
2023/11/12 02:02:07;;;;;;;48.03;20.55;;;;;;;4.97;100.00;100522.06;5263550;28;20012;-70
2023/11/12 02:04:37;;;;;;;124.72;20.80;;;;;;;4.90;100.00;100519.97;5260760;28;20640;-71
2023/11/12 02:07:08;;;;;;;35.65;15.80;;;;;;;4.85;100.00;100524.03;5264109;28;20021;-70
2023/11/12 02:09:38;;;;;;;30.88;16.58;;;;;;;4.83;100.00;100523.34;5263218;28;20146;-71
2023/11/12 02:12:09;;;;;;;31.75;17.23;;;;;;;4.85;100.00;100521.38;5267622;28;20020;-70
2023/11/12 02:14:39;;;;;;;45.35;17.38;;;;;;;4.81;100.00;100523.44;5264860;28;20035;-71
2023/11/12 02:17:10;;;;;;;38.38;17.63;;;;;;;4.80;100.00;100524.44;5261268;28;20031;-70
2023/11/12 02:19:41;;;;;;;36.45;17.73;;;;;;;4.74;100.00;100532.97;5264177;28;20020;-71
2023/11/12 02:22:12;;;;;;;34.08;17.10;;;;;;;4.70;100.00;100526.22;5261711;28;20027;-70
2023/11/12 02:24:42;;;;;;;35.70;17.42;;;;;;;4.64;100.00;100540.06;5263657;28;20177;-70
2023/11/12 02:27:13;;;;;;;37.70;18.40;;;;;;;4.59;100.00;100537.81;5265845;28;20023;-70
2023/11/12 02:29:49;;;;;;;37.85;17.67;;;;;;;4.58;100.00;100533.47;5263999;28;20032;-70
2023/11/12 02:32:20;;;;;;;38.92;18.23;;;;;;;4.55;100.00;100527.59;5260547;28;20469;-70
2023/11/12 02:34:51;;;;;;;39.10;17.92;;;;;;;4.52;100.00;100530.50;5264140;28;20027;-70
2023/11/12 02:37:23;;;;;;;32.47;16.00;;;;;;;4.50;100.00;100533.31;5267200;28;20031;-70
2023/11/12 02:39:54;;;;;;;42.28;19.08;;;;;;;4.52;100.00;100527.84;5262354;28;20051;-70
2023/11/12 02:42:27;;;;;;;38.20;18.73;;;;;;;4.50;100.00;100537.78;5265695;28;20113;-70
2023/11/12 02:44:57;;;;;;;40.65;19.13;;;;;;;4.51;100.00;100526.16;5265047;28;20023;-69
2023/11/12 02:47:28;;;;;;;42.85;20.33;;;;;;;4.56;100.00;100521.28;5262612;28;20043;-71
2023/11/12 02:50:22;;;;;;;44.83;19.35;;;;;;;4.59;100.00;100523.69;5263738;28;20393;-70
2023/11/12 02:52:53;;;;;;;45.80;20.02;;;;;;;4.60;100.00;100514.72;5258925;28;20032;-70
2023/11/12 02:55:24;;;;;;;42.03;20.00;;;;;;;4.63;100.00;100511.81;5262948;28;20497;-70
2023/11/12 02:57:55;;;;;;;41.72;19.42;;;;;;;4.66;100.00;100512.38;5257681;28;20028;-70
2023/11/12 03:00:27;;;;;;;52.67;23.58;;;;;;;4.71;100.00;100511.13;5265907;28;20011;-70
2023/11/12 03:03:00;;;;;;;58.28;23.75;;;;;;;4.72;100.00;100515.44;5261086;28;20106;-71
2023/11/12 03:05:31;;;;;;;44.13;19.85;;;;;;;4.82;100.00;100521.63;5260362;28;20012;-70
2023/11/12 03:08:02;;;;;;;44.95;21.52;;;;;;;4.88;100.00;100519.28;5262891;28;20107;-71
2023/11/12 03:10:33;;;;;;;79.72;27.98;;;;;;;4.92;100.00;100522.50;5264851;28;20103;-71
2023/11/12 03:13:04;;;;;;;65.05;28.63;;;;;;;5.07;100.00;100517.59;5259707;28;20040;-71
2023/11/12 03:15:34;;;;;;;69.72;27.27;;;;;;;5.18;100.00;100512.19;5265266;28;20446;-71
2023/11/12 03:18:05;;;;;;;69.65;28.13;;;;;;;5.28;100.00;100521.00;5259041;28;20020;-71
2023/11/12 03:20:36;;;;;;;69.90;25.70;;;;;;;5.35;100.00;100515.94;5262818;28;20431;-71
2023/11/12 03:23:11;;;;;;;68.40;26.60;;;;;;;5.41;100.00;100508.22;5264918;28;20029;-71
2023/11/12 03:25:42;;;;;;;74.63;28.17;;;;;;;5.48;100.00;100513.84;5264660;28;20023;-71
2023/11/12 03:28:12;;;;;;;95.85;26.80;;;;;;;5.52;100.00;100509.91;5259558;28;20052;-71
2023/11/12 03:31:00;;;;;;;89.43;26.35;;;;;;;5.61;100.00;100505.56;5257195;28;20504;-71
2023/11/12 03:33:31;;;;;;;115.63;23.98;;;;;;;5.63;100.00;100500.94;5265280;28;20034;-71
2023/11/12 03:36:09;;;;;;;91.53;24.38;;;;;;;5.69;100.00;100493.22;5261284;28;20531;-71
2023/11/12 03:38:41;;;;;;;106.00;23.40;;;;;;;5.68;100.00;100490.72;5260815;28;20016;-71
2023/11/12 03:41:12;;;;;;;102.85;22.63;;;;;;;5.70;100.00;100488.72;5261690;28;20397;-71
2023/11/12 03:43:42;;;;;;;90.15;24.80;;;;;;;5.80;100.00;100494.03;5257788;28;20115;-71
2023/11/12 03:46:13;;;;;;;133.30;23.70;;;;;;;5.82;100.00;100486.72;5261960;28;20099;-71
2023/11/12 03:48:43;;;;;;;130.48;22.95;;;;;;;5.77;100.00;100484.50;5260935;28;20107;-71
2023/11/12 03:51:14;;;;;;;159.82;24.20;;;;;;;5.75;100.00;100493.63;5261814;28;20100;-71
2023/11/12 03:53:44;;;;;;;265.77;27.10;;;;;;;5.76;100.00;100493.47;5257840;28;20028;-71
2023/11/12 03:56:15;;;;;;;190.50;25.95;;;;;;;5.72;100.00;100497.41;5260839;28;20016;-70
2023/11/12 03:58:45;;;;;;;123.90;20.65;;;;;;;5.78;100.00;100488.88;5260542;28;20040;-71
2023/11/12 04:01:16;;;;;;;164.77;26.42;;;;;;;5.83;100.00;100491.94;5260070;28;20103;-71
2023/11/12 04:03:46;;;;;;;182.23;25.45;;;;;;;5.86;100.00;100496.13;5255944;28;20367;-70
2023/11/12 04:06:17;;;;;;;131.68;23.35;;;;;;;5.86;100.00;100491.63;5262045;28;21338;-71
2023/11/12 04:08:48;;;;;;;203.55;27.35;;;;;;;5.89;100.00;100493.19;5261748;28;20024;-71
2023/11/12 04:11:19;;;;;;;167.80;25.58;;;;;;;5.90;100.00;100497.50;5262496;28;20095;-71
2023/11/12 04:13:49;;;;;;;174.95;26.45;;;;;;;5.91;100.00;100491.19;5255551;28;20016;-71
2023/11/12 04:16:20;;;;;;;255.95;29.95;;;;;;;5.93;100.00;100491.94;5264257;28;20022;-71
2023/11/12 04:18:50;;;;;;;228.52;30.33;;;;;;;5.77;100.00;100489.81;5257650;28;20411;-71
2023/11/12 04:21:21;;;;;;;149.48;24.10;;;;;;;5.79;100.00;100493.19;5259725;28;20023;-71
2023/11/12 04:23:52;;;;;;;197.75;27.95;;;;;;;5.71;100.00;100495.72;5256181;28;20028;-72
2023/11/12 04:26:22;;;;;;;205.60;27.35;;;;;;;5.68;100.00;100488.06;5258470;28;20051;-71
2023/11/12 04:28:54;;;;;;;165.45;24.80;;;;;;;5.69;100.00;100489.72;5256083;28;20032;-71
2023/11/12 04:31:24;;;;;;;205.57;24.42;;;;;;;5.67;100.00;100492.53;5255252;28;20016;-71
2023/11/12 04:33:55;;;;;;;205.88;24.33;;;;;;;5.58;100.00;100493.38;5254707;28;20074;-71
2023/11/12 04:36:27;;;;;;;322.60;31.95;;;;;;;5.66;100.00;100496.16;5256300;28;20016;-71
2023/11/12 04:38:57;;;;;;;186.10;24.13;;;;;;;5.64;100.00;100499.97;5255166;28;20028;-71
2023/11/12 04:41:28;;;;;;;161.43;22.13;;;;;;;5.62;100.00;100497.44;5263012;28;20457;-71
2023/11/12 04:43:59;;;;;;;466.20;34.20;;;;;;;5.61;100.00;100494.91;5263780;28;20105;-71
2023/11/12 04:46:31;;;;;;;208.52;23.45;;;;;;;5.60;100.00;100503.88;5261221;28;20008;-71
2023/11/12 04:49:01;;;;;;;154.32;22.00;;;;;;;5.60;100.00;100517.19;5250794;28;20462;-71
2023/11/12 04:51:32;;;;;;;187.95;23.98;;;;;;;5.56;100.00;100516.63;5258749;28;20016;-71
2023/11/12 04:54:03;;;;;;;201.90;24.00;;;;;;;5.65;100.00;100522.91;5260630;28;20045;-71
2023/11/12 04:56:34;;;;;;;217.63;23.27;;;;;;;5.64;100.00;100524.75;5258743;28;20030;-71
2023/11/12 04:59:05;;;;;;;164.55;22.83;;;;;;;5.53;100.00;100529.38;5259742;28;20024;-71
2023/11/12 05:01:36;;;;;;;140.45;19.83;;;;;;;5.61;100.00;100533.00;5256290;28;20069;-71
2023/11/12 05:04:07;;;;;;;136.77;21.13;;;;;;;5.63;100.00;100538.19;5262097;28;20078;-71
2023/11/12 05:06:37;;;;;;;270.75;25.73;;;;;;;5.63;100.00;100540.88;5257625;28;20028;-71
2023/11/12 05:09:08;;;;;;;127.22;20.15;;;;;;;5.77;100.00;100532.41;5255939;28;20028;-72
2023/11/12 05:11:39;;;;;;;324.65;28.02;;;;;;;5.75;100.00;100525.56;5253996;28;20513;-71
2023/11/12 05:14:10;;;;;;;121.13;21.75;;;;;;;5.72;100.00;100540.84;5256458;28;20024;-71
2023/11/12 05:16:42;;;;;;;115.95;21.20;;;;;;;5.74;100.00;100529.22;5257197;28;20027;-71
2023/11/12 05:19:13;;;;;;;261.05;26.27;;;;;;;5.77;100.00;100529.75;5251843;28;20025;-72
2023/11/12 05:21:45;;;;;;;217.48;23.70;;;;;;;5.75;100.00;100534.38;5256462;28;20054;-71
2023/11/12 05:24:16;;;;;;;90.97;19.02;;;;;;;5.80;100.00;100528.63;5255877;28;20017;-71
2023/11/12 05:26:47;;;;;;;146.98;21.90;;;;;;;5.81;100.00;100525.81;5257230;28;20054;-71
2023/11/12 05:29:17;;;;;;;158.63;21.55;;;;;;;5.78;100.00;100525.28;5250737;28;20029;-72
2023/11/12 05:31:47;;;;;;;160.57;22.17;;;;;;;5.87;100.00;100519.94;5254811;28;20103;-72
2023/11/12 05:34:18;;;;;;;288.17;27.70;;;;;;;6.01;100.00;100525.81;5257927;28;20123;-71
2023/11/12 05:36:49;;;;;;;153.80;22.15;;;;;;;6.07;100.00;100530.56;5257547;28;20058;-71
2023/11/12 05:39:19;;;;;;;148.02;21.17;;;;;;;6.09;100.00;100528.59;5258747;28;20059;-72
2023/11/12 05:41:51;;;;;;;130.25;20.52;;;;;;;6.11;100.00;100523.97;5257316;28;20016;-72
2023/11/12 05:44:21;;;;;;;100.25;18.75;;;;;;;6.15;100.00;100520.88;5258698;28;20024;-72
2023/11/12 05:46:52;;;;;;;129.38;20.30;;;;;;;6.19;100.00;100534.75;5259701;28;20220;-71
2023/11/12 05:49:22;;;;;;;115.32;20.55;;;;;;;6.08;100.00;100527.78;5260884;28;20020;-72
2023/11/12 05:51:53;;;;;;;126.47;18.90;;;;;;;6.08;100.00;100533.09;5253174;28;20028;-72
2023/11/12 05:54:23;;;;;;;104.53;18.98;;;;;;;6.02;100.00;100538.13;5264930;28;20091;-72
2023/11/12 05:56:55;;;;;;;95.70;18.30;;;;;;;6.01;100.00;100539.13;5261383;28;20048;-72
2023/11/12 05:59:26;;;;;;;145.75;20.23;;;;;;;6.09;100.00;100536.59;5255278;28;20393;-72
2023/11/12 06:01:56;;;;;;;108.35;18.33;;;;;;;6.09;100.00;100534.78;5263069;28;20028;-72
2023/11/12 06:04:26;;;;;;;108.43;18.20;;;;;;;6.11;100.00;100532.78;5261018;28;20095;-71
2023/11/12 06:06:57;;;;;;;119.93;20.85;;;;;;;6.06;100.00;100539.53;5264576;28;20521;-72
2023/11/12 06:09:27;;;;;;;200.00;27.10;;;;;;;6.08;100.00;100541.09;5264185;28;20666;-72
2023/11/12 06:11:58;;;;;;;244.15;26.92;;;;;;;6.19;100.00;100540.06;5265306;28;20115;-72
2023/11/12 06:14:28;;;;;;;142.05;22.42;;;;;;;6.12;100.00;100536.28;5259991;28;20024;-72
2023/11/12 06:16:59;;;;;;;166.52;23.23;;;;;;;6.11;100.00;100542.59;5260057;28;20028;-71
2023/11/12 06:19:29;;;;;;;99.43;19.33;;;;;;;6.17;100.00;100539.34;5258443;28;20445;-72
2023/11/12 06:22:01;;;;;;;115.10;21.33;;;;;;;6.12;100.00;100537.13;5257678;28;20108;-72
2023/11/12 06:24:31;;;;;;;172.70;24.40;;;;;;;6.10;100.00;100536.44;5249817;28;20020;-71
2023/11/12 06:27:02;;;;;;;167.48;22.17;;;;;;;6.11;100.00;100532.78;5256394;28;20473;-72
2023/11/12 06:29:33;;;;;;;135.40;22.88;;;;;;;6.21;100.00;100533.59;5258703;28;20049;-72
2023/11/12 06:32:04;;;;;;;209.18;25.70;;;;;;;6.17;100.00;100531.38;5255817;28;20028;-72
2023/11/12 06:34:34;;;;;;;149.57;22.33;;;;;;;6.12;100.00;100533.63;5263466;28;20076;-72
2023/11/12 06:37:05;;;;;;;150.48;21.92;;;;;;;6.55;100.00;100534.88;5260884;28;20536;-72
2023/11/12 06:39:35;;;;;;;243.98;31.67;;;;;;;6.69;100.00;100531.72;5255203;28;20024;-71
2023/11/12 06:42:06;;;;;;;117.97;23.30;;;;;;;6.72;100.00;100529.56;5258744;28;20061;-72
2023/11/12 06:44:38;;;;;;;180.93;25.25;;;;;;;6.73;100.00;100533.09;5263003;28;20027;-71
2023/11/12 06:47:09;;;;;;;136.57;24.08;;;;;;;6.75;100.00;100529.28;5256297;28;20107;-71
2023/11/12 06:49:39;;;;;;;222.88;29.63;;;;;;;6.77;100.00;100533.63;5260970;28;20149;-71
2023/11/12 06:52:10;;;;;;;163.77;25.50;;;;;;;6.74;100.00;100534.78;5264624;28;20043;-72
2023/11/12 06:54:41;;;;;;;144.43;26.10;;;;;;;6.73;100.00;100530.44;5255330;28;20024;-72
2023/11/12 06:57:11;;;;;;;234.35;28.35;;;;;;;6.73;100.00;100541.09;5253127;28;20424;-71
2023/11/12 06:59:42;;;;;;;137.10;24.27;;;;;;;6.72;100.00;100534.91;5257796;28;20032;-72
2023/11/12 07:02:12;;;;;;;148.30;25.35;;;;;;;6.78;100.00;100533.50;5259886;28;20499;-72
2023/11/12 07:04:43;;;;;;;171.13;26.35;;;;;;;6.78;100.00;100540.63;5257486;28;20834;-72
2023/11/12 07:07:14;;;;;;;176.93;26.92;;;;;;;6.83;100.00;100541.88;5260541;28;20032;-72
2023/11/12 07:09:45;;;;;;;167.38;28.55;;;;;;;6.83;100.00;100541.88;5256496;28;20052;-72
2023/11/12 07:12:16;;;;;;;185.55;28.83;;;;;;;6.80;100.00;100546.66;5261716;28;20078;-72
2023/11/12 07:14:47;;;;;;;200.25;29.63;;;;;;;6.81;100.00;100551.00;5260901;28;20028;-72
2023/11/12 07:17:18;;;;;;;190.85;27.92;;;;;;;6.74;100.00;100551.59;5253960;28;20424;-72
2023/11/12 07:19:48;;;;;;;171.80;27.95;;;;;;;6.80;100.00;100555.50;5260208;28;20028;-72
2023/11/12 07:22:18;;;;;;;188.63;30.00;;;;;;;6.82;100.00;100556.19;5255299;28;20029;-72
2023/11/12 07:24:49;;;;;;;164.65;30.40;;;;;;;6.90;100.00;100560.78;5262056;28;20103;-72
2023/11/12 07:27:20;;;;;;;238.65;31.55;;;;;;;6.92;100.00;100556.97;5259017;28;20678;-71
2023/11/12 07:29:51;;;;;;;211.25;31.00;;;;;;;7.02;100.00;100564.91;5268339;28;20032;-72
2023/11/12 07:32:21;;;;;;;194.20;27.88;;;;;;;7.07;100.00;100567.13;5257127;28;20410;-72
2023/11/12 07:34:52;;;;;;;154.90;30.25;;;;;;;7.05;100.00;100561.94;5264961;28;20046;-72
2023/11/12 07:37:22;;;;;;;159.57;29.42;;;;;;;7.08;100.00;100566.13;5260615;28;20077;-72
2023/11/12 07:39:53;;;;;;;151.10;27.45;;;;;;;7.15;100.00;100565.38;5258165;28;20036;-72
2023/11/12 07:42:23;;;;;;;137.10;26.42;;;;;;;7.16;100.00;100564.38;5258694;28;20111;-72
2023/11/12 07:44:54;;;;;;;143.40;26.15;;;;;;;7.18;100.00;100572.28;5257810;28;20024;-72
2023/11/12 07:47:24;;;;;;;115.88;24.27;;;;;;;7.17;100.00;100568.72;5261782;28;20487;-72
2023/11/12 07:49:55;;;;;;;99.18;21.77;;;;;;;7.19;100.00;100571.28;5262955;28;20024;-72
2023/11/12 07:52:25;;;;;;;84.22;21.60;;;;;;;7.15;100.00;100572.56;5261473;28;20077;-72
2023/11/12 07:54:56;;;;;;;81.25;20.38;;;;;;;7.21;100.00;100571.94;5262373;28;20122;-72
2023/11/12 07:57:26;;;;;;;81.47;22.42;;;;;;;7.24;100.00;100574.31;5256016;28;20052;-71
2023/11/12 07:59:57;;;;;;;93.60;22.02;;;;;;;7.29;100.00;100579.22;5260129;28;20066;-72
2023/11/12 08:02:28;;;;;;;96.78;22.42;;;;;;;7.35;100.00;100578.59;5259313;28;21375;-72
2023/11/12 08:05:01;;;;;;;87.82;20.45;;;;;;;7.36;100.00;100583.78;5262477;28;20061;-71
2023/11/12 08:07:31;;;;;;;91.25;21.58;;;;;;;7.23;100.00;100584.16;5260935;28;20030;-72
2023/11/12 08:10:05;;;;;;;78.20;19.73;;;;;;;7.31;100.00;100586.06;5261301;28;20465;-72
2023/11/12 08:12:38;;;;;;;63.95;19.70;;;;;;;7.23;100.00;100586.84;5260121;28;20030;-72
2023/11/12 08:15:12;;;;;;;67.93;19.33;;;;;;;7.26;100.00;100591.84;5255946;28;20035;-72
2023/11/12 08:17:43;;;;;;;65.95;18.67;;;;;;;7.27;100.00;100598.84;5260584;28;20028;-72
2023/11/12 08:20:14;;;;;;;63.42;18.83;;;;;;;7.32;100.00;100603.75;5260035;28;20080;-72
2023/11/12 08:22:46;;;;;;;48.88;17.42;;;;;;;7.30;100.00;100605.72;5265965;28;20035;-72
2023/11/12 08:25:17;;;;;;;62.50;18.20;;;;;;;7.32;100.00;100602.91;5255722;28;20035;-72
2023/11/12 08:27:48;;;;;;;53.55;16.95;;;;;;;7.39;100.00;100604.84;5258804;28;20032;-72
2023/11/12 08:30:18;;;;;;;58.17;17.52;;;;;;;7.34;100.00;100604.44;5265058;28;20030;-72
2023/11/12 08:32:49;;;;;;;46.30;16.67;;;;;;;7.22;100.00;100600.28;5260543;28;20035;-72
2023/11/12 08:35:20;;;;;;;48.60;16.77;;;;;;;7.31;100.00;100603.91;5257621;28;20482;-72
2023/11/12 08:37:50;;;;;;;55.58;17.55;;;;;;;7.30;100.00;100608.41;5260690;28;20043;-72
2023/11/12 08:40:21;;;;;;;56.25;17.48;;;;;;;7.31;100.00;100601.22;5259560;28;20059;-72
2023/11/12 08:42:51;;;;;;;54.10;17.15;;;;;;;7.34;100.00;100606.28;5257571;28;20034;-72
2023/11/12 08:45:22;;;;;;;53.95;17.98;;;;;;;7.34;100.00;100611.63;5259561;28;20400;-72
2023/11/12 08:47:52;;;;;;;56.65;16.92;;;;;;;7.27;100.00;100614.03;5259600;28;20028;-72
2023/11/12 08:50:23;;;;;;;53.13;18.17;;;;;;;7.29;100.00;100608.56;5259287;28;20034;-72
2023/11/12 08:52:56;;;;;;;43.13;16.50;;;;;;;7.17;100.00;100613.25;5264756;28;20028;-72
2023/11/12 08:55:27;;;;;;;46.67;16.55;;;;;;;7.11;100.00;100611.19;5263345;28;20033;-72
2023/11/12 08:57:57;;;;;;;50.67;16.85;;;;;;;7.20;100.00;100608.47;5259529;28;20032;-72
2023/11/12 09:00:28;;;;;;;49.42;17.20;;;;;;;7.29;100.00;100613.91;5256281;28;20587;-72
2023/11/12 09:02:59;;;;;;;49.85;16.67;;;;;;;7.29;100.00;100606.72;5256675;28;20473;-71
2023/11/12 09:05:30;;;;;;;52.60;17.13;;;;;;;7.35;100.00;100611.47;5259397;28;20039;-72
2023/11/12 09:08:00;;;;;;;51.08;17.73;;;;;;;7.37;100.00;100608.63;5256957;28;20092;-72
2023/11/12 09:10:32;;;;;;;52.50;18.08;;;;;;;7.41;100.00;100612.69;5259260;28;20099;-72
2023/11/12 09:13:03;;;;;;;59.15;18.40;;;;;;;7.50;100.00;100612.59;5263472;28;20114;-72
2023/11/12 09:15:34;;;;;;;46.60;17.52;;;;;;;7.58;100.00;100608.31;5261246;28;20134;-72
2023/11/12 09:18:04;;;;;;;48.88;17.42;;;;;;;7.69;100.00;100614.28;5254317;28;20032;-71
2023/11/12 09:20:35;;;;;;;54.03;16.58;;;;;;;7.74;100.00;100612.00;5258438;28;20385;-71
2023/11/12 09:23:05;;;;;;;43.40;16.60;;;;;;;7.80;100.00;100613.22;5255004;28;20024;-71
2023/11/12 09:25:35;;;;;;;46.20;16.48;;;;;;;7.90;100.00;100613.97;5259378;28;20095;-71
2023/11/12 09:28:06;;;;;;;43.47;16.10;;;;;;;7.97;100.00;100616.84;5264166;28;20036;-72
2023/11/12 09:30:37;;;;;;;39.70;15.60;;;;;;;7.98;100.00;100613.19;5266652;28;20131;-72
2023/11/12 09:33:09;;;;;;;43.50;15.10;;;;;;;8.01;100.00;100605.69;5266369;28;20032;-71
2023/11/12 09:35:40;;;;;;;35.47;14.35;;;;;;;8.03;100.00;100611.75;5265136;28;20049;-71
2023/11/12 09:38:13;;;;;;;44.97;15.20;;;;;;;8.07;100.00;100600.72;5257369;28;20029;-72
2023/11/12 09:40:43;;;;;;;40.58;15.95;;;;;;;8.14;100.00;100616.00;5265357;28;20107;-71
2023/11/12 09:43:14;;;;;;;38.80;15.88;;;;;;;8.16;100.00;100611.31;5260817;28;20488;-71
2023/11/12 09:45:54;;;;;;;36.17;15.25;;;;;;;8.16;100.00;100613.16;5266740;28;20027;-72
2023/11/12 09:48:35;;;;;;;30.98;13.75;;;;;;;8.22;100.00;100609.84;5260640;28;20090;-71
2023/11/12 09:51:08;;;;;;;37.05;14.50;;;;;;;8.37;100.00;100605.63;5256775;28;20024;-71
2023/11/12 09:53:40;;;;;;;37.40;15.00;;;;;;;8.45;100.00;100602.19;5258636;28;20115;-72
2023/11/12 09:56:11;;;;;;;40.83;15.60;;;;;;;8.59;100.00;100603.44;5262268;28;20031;-72
2023/11/12 09:58:45;;;;;;;40.13;14.30;;;;;;;8.74;100.00;100612.53;5255975;28;20020;-71
2023/11/12 10:01:16;;;;;;;34.20;13.90;;;;;;;9.03;100.00;100618.31;5264764;28;20031;-72
2023/11/12 10:03:48;;;;;;;34.05;13.45;;;;;;;9.26;100.00;100623.94;5256155;28;20071;-72
2023/11/12 10:06:20;;;;;;;30.30;13.18;;;;;;;9.26;100.00;100623.94;5264482;28;20024;-72
2023/11/12 10:08:51;;;;;;;26.98;12.13;;;;;;;9.34;100.00;100626.63;5260720;28;20020;-72
2023/11/12 10:11:23;;;;;;;28.48;12.45;;;;;;;9.44;100.00;100622.94;5258012;28;20039;-72
2023/11/12 10:13:56;;;;;;;24.77;11.90;;;;;;;9.61;100.00;100635.38;5267889;28;20102;-72
2023/11/12 10:16:30;;;;;;;27.13;11.20;;;;;;;9.56;100.00;100629.69;5257063;28;20043;-72
2023/11/12 10:19:12;;;;;;;30.55;12.25;;;;;;;9.62;100.00;100638.91;5259468;28;20500;-72
2023/11/12 10:21:55;;;;;;;26.50;11.15;;;;;;;9.64;100.00;100644.91;5265888;28;20027;-72
2023/11/12 10:24:28;;;;;;;32.70;11.98;;;;;;;9.58;100.00;100639.22;5257522;28;20020;-72
2023/11/12 10:27:03;;;;;;;25.40;11.93;;;;;;;9.55;100.00;100638.72;5264665;28;20036;-71
2023/11/12 10:29:34;;;;;;;20.10;10.13;;;;;;;9.48;100.00;100648.41;5266462;28;20412;-71
2023/11/12 10:32:05;;;;;;;21.25;10.70;;;;;;;9.57;100.00;100652.78;5265356;28;20049;-71
2023/11/12 10:34:47;;;;;;;25.02;11.23;;;;;;;9.61;100.00;100648.78;5266904;28;20024;-71
2023/11/12 10:37:19;;;;;;;24.15;11.27;;;;;;;9.75;100.00;100648.13;5260587;28;20069;-71
2023/11/12 10:39:49;;;;;;;21.77;10.57;;;;;;;9.89;100.00;100652.00;5259724;28;20099;-71
2023/11/12 10:42:24;;;;;;;25.17;11.63;;;;;;;9.99;100.00;100647.31;5260600;28;20124;-71
2023/11/12 10:44:56;;;;;;;24.77;10.25;;;;;;;10.08;100.00;100654.34;5258556;28;20043;-71
2023/11/12 10:47:29;;;;;;;20.92;9.93;;;;;;;10.12;100.00;100658.34;5259165;28;20103;-71
2023/11/12 10:50:02;;;;;;;21.95;10.32;;;;;;;10.01;100.00;100661.38;5256470;28;20432;-71
2023/11/12 10:52:36;;;;;;;21.75;10.50;;;;;;;9.99;100.00;100671.44;5261949;28;20028;-71
2023/11/12 10:55:08;;;;;;;21.38;9.68;;;;;;;9.84;100.00;100667.75;5262626;28;20032;-71
2023/11/12 10:57:42;;;;;;;24.02;10.38;;;;;;;9.70;100.00;100663.03;5256414;28;20115;-71
2023/11/12 11:00:16;;;;;;;19.08;10.43;;;;;;;9.66;100.00;100667.88;5256857;28;20025;-71
2023/11/12 11:02:48;;;;;;;17.55;9.68;;;;;;;9.62;100.00;100671.03;5268064;28;20436;-71
2023/11/12 11:05:19;;;;;;;21.67;11.02;;;;;;;9.67;100.00;100664.19;5252099;28;20040;-71
2023/11/12 11:07:50;;;;;;;24.35;10.15;;;;;;;9.68;100.00;100667.69;5262187;28;20024;-71
2023/11/12 11:10:21;;;;;;;24.42;10.55;;;;;;;9.74;100.00;100664.34;5254184;28;20016;-72
2023/11/12 11:12:51;;;;;;;25.23;10.88;;;;;;;9.84;100.00;100665.06;5265457;28;20479;-71
2023/11/12 11:15:41;;;;;;;22.27;10.43;;;;;;;9.89;100.00;100660.03;5261110;28;20027;-72
2023/11/12 11:18:28;;;;;;;26.08;11.07;;;;;;;10.10;100.00;100667.59;5263374;28;20031;-71
2023/11/12 11:21:05;;;;;;;20.17;10.63;;;;;;;10.18;100.00;100662.22;5260536;28;20070;-72
2023/11/12 11:23:49;;;;;;;30.60;10.50;;;;;;;10.41;100.00;100665.09;5257966;28;20048;-72
2023/11/12 11:26:30;;;;;;;18.90;10.02;;;;;;;10.54;100.00;100651.13;5256321;28;20501;-72